sensor_id;sensor_type;location;lat;lon;timestamp;P1;durP1;ratioP1;P2;durP2;ratioP2
1180;SDS011;579;52.046;8.532;2023-02-22T00:01:10;0.10;;;0.10;;
1180;SDS011;579;52.046;8.532;2023-02-22T00:03:47;0.10;;;0.10;;
1180;SDS011;579;52.046;8.532;2023-02-22T00:09:20;0.20;;;0.20;;
1180;SDS011;579;52.046;8.532;2023-02-22T00:11:47;0.17;;;0.17;;
1180;SDS011;579;52.046;8.532;2023-02-22T00:14:13;0.15;;;0.15;;
1180;SDS011;579;52.046;8.532;2023-02-22T00:16:44;0.17;;;0.17;;
1180;SDS011;579;52.046;8.532;2023-02-22T00:19:10;0.20;;;0.20;;
1180;SDS011;579;52.046;8.532;2023-02-22T00:21:36;0.25;;;0.25;;
1180;SDS011;579;52.046;8.532;2023-02-22T00:24:03;0.20;;;0.20;;
1180;SDS011;579;52.046;8.532;2023-02-22T00:26:47;0.20;;;0.20;;
1180;SDS011;579;52.046;8.532;2023-02-22T00:29:14;0.13;;;0.13;;
1180;SDS011;579;52.046;8.532;2023-02-22T00:36:46;0.10;;;0.10;;
1180;SDS011;579;52.046;8.532;2023-02-22T00:39:12;0.20;;;0.20;;
1180;SDS011;579;52.046;8.532;2023-02-22T00:41:38;0.15;;;0.15;;
1180;SDS011;579;52.046;8.532;2023-02-22T00:44:04;0.20;;;0.20;;
1180;SDS011;579;52.046;8.532;2023-02-22T00:46:30;0.30;;;0.30;;
1180;SDS011;579;52.046;8.532;2023-02-22T00:48:57;0.20;;;0.20;;
1180;SDS011;579;52.046;8.532;2023-02-22T00:51:24;0.10;;;0.10;;
1180;SDS011;579;52.046;8.532;2023-02-22T00:53:51;0.13;;;0.13;;
1180;SDS011;579;52.046;8.532;2023-02-22T01:00:56;0.10;;;0.10;;
1180;SDS011;579;52.046;8.532;2023-02-22T01:03:22;0.10;;;0.10;;
1180;SDS011;579;52.046;8.532;2023-02-22T01:05:48;0.15;;;0.15;;
1180;SDS011;579;52.046;8.532;2023-02-22T01:08:15;0.10;;;0.10;;
1180;SDS011;579;52.046;8.532;2023-02-22T01:10:42;0.10;;;0.10;;
1180;SDS011;579;52.046;8.532;2023-02-22T01:13:09;0.10;;;0.10;;
1180;SDS011;579;52.046;8.532;2023-02-22T01:15:37;0.10;;;0.10;;
1180;SDS011;579;52.046;8.532;2023-02-22T01:18:06;0.10;;;0.10;;
1180;SDS011;579;52.046;8.532;2023-02-22T01:25:38;0.10;;;0.10;;
1180;SDS011;579;52.046;8.532;2023-02-22T01:28:05;0.10;;;0.10;;
1180;SDS011;579;52.046;8.532;2023-02-22T01:30:33;0.10;;;0.10;;
1180;SDS011;579;52.046;8.532;2023-02-22T01:33:01;0.08;;;0.08;;
1180;SDS011;579;52.046;8.532;2023-02-22T01:35:32;0.10;;;0.10;;
1180;SDS011;579;52.046;8.532;2023-02-22T01:38:01;0.00;;;0.00;;
1180;SDS011;579;52.046;8.532;2023-02-22T01:40:28;0.00;;;0.00;;
1180;SDS011;579;52.046;8.532;2023-02-22T01:45:54;0.10;;;0.10;;
1180;SDS011;579;52.046;8.532;2023-02-22T01:48:26;0.10;;;0.10;;
1180;SDS011;579;52.046;8.532;2023-02-22T01:50:58;0.10;;;0.10;;
1180;SDS011;579;52.046;8.532;2023-02-22T01:53:36;0.10;;;0.10;;
1180;SDS011;579;52.046;8.532;2023-02-22T01:56:07;0.10;;;0.10;;
1180;SDS011;579;52.046;8.532;2023-02-22T01:58:34;0.10;;;0.10;;
1180;SDS011;579;52.046;8.532;2023-02-22T02:01:03;0.10;;;0.10;;
1180;SDS011;579;52.046;8.532;2023-02-22T02:06:12;0.10;;;0.10;;
1180;SDS011;579;52.046;8.532;2023-02-22T02:08:44;0.00;;;0.00;;
1180;SDS011;579;52.046;8.532;2023-02-22T02:11:26;0.10;;;0.10;;
1180;SDS011;579;52.046;8.532;2023-02-22T02:13:54;0.10;;;0.10;;
1180;SDS011;579;52.046;8.532;2023-02-22T02:16:22;0.10;;;0.10;;
1180;SDS011;579;52.046;8.532;2023-02-22T02:18:51;0.08;;;0.08;;
1180;SDS011;579;52.046;8.532;2023-02-22T02:24:50;0.00;;;0.00;;
1180;SDS011;579;52.046;8.532;2023-02-22T02:28:09;0.00;;;0.00;;
1180;SDS011;579;52.046;8.532;2023-02-22T02:34:17;0.00;;;0.00;;
1180;SDS011;579;52.046;8.532;2023-02-22T02:36:51;0.00;;;0.00;;
1180;SDS011;579;52.046;8.532;2023-02-22T02:39:25;0.08;;;0.08;;
1180;SDS011;579;52.046;8.532;2023-02-22T02:41:57;0.10;;;0.10;;
1180;SDS011;579;52.046;8.532;2023-02-22T02:52:08;0.08;;;0.08;;
1180;SDS011;579;52.046;8.532;2023-02-22T02:54:37;0.10;;;0.10;;
1180;SDS011;579;52.046;8.532;2023-02-22T02:57:05;0.10;;;0.10;;
1180;SDS011;579;52.046;8.532;2023-02-22T02:59:34;0.00;;;0.00;;
1180;SDS011;579;52.046;8.532;2023-02-22T03:02:14;0.05;;;0.05;;
1180;SDS011;579;52.046;8.532;2023-02-22T03:05:08;0.00;;;0.00;;
1180;SDS011;579;52.046;8.532;2023-02-22T03:07:49;0.00;;;0.00;;
1180;SDS011;579;52.046;8.532;2023-02-22T03:15:32;0.10;;;0.10;;
1180;SDS011;579;52.046;8.532;2023-02-22T03:18:12;0.10;;;0.10;;
1180;SDS011;579;52.046;8.532;2023-02-22T03:20:47;0.05;;;0.05;;
1180;SDS011;579;52.046;8.532;2023-02-22T03:23:21;0.00;;;0.00;;
1180;SDS011;579;52.046;8.532;2023-02-22T03:25:53;0.00;;;0.00;;
1180;SDS011;579;52.046;8.532;2023-02-22T03:28:25;0.00;;;0.00;;
1180;SDS011;579;52.046;8.532;2023-02-22T03:30:55;0.00;;;0.00;;
1180;SDS011;579;52.046;8.532;2023-02-22T03:38:15;0.10;;;0.10;;
1180;SDS011;579;52.046;8.532;2023-02-22T03:40:45;0.10;;;0.10;;
1180;SDS011;579;52.046;8.532;2023-02-22T03:43:17;0.10;;;0.10;;
1180;SDS011;579;52.046;8.532;2023-02-22T03:45:49;0.00;;;0.00;;
1180;SDS011;579;52.046;8.532;2023-02-22T03:48:18;0.10;;;0.10;;
1180;SDS011;579;52.046;8.532;2023-02-22T03:50:50;0.10;;;0.10;;
1180;SDS011;579;52.046;8.532;2023-02-22T03:53:17;0.05;;;0.05;;
1180;SDS011;579;52.046;8.532;2023-02-22T04:00:50;0.00;;;0.00;;
1180;SDS011;579;52.046;8.532;2023-02-22T04:03:17;0.10;;;0.10;;
1180;SDS011;579;52.046;8.532;2023-02-22T04:05:44;0.10;;;0.10;;
1180;SDS011;579;52.046;8.532;2023-02-22T04:08:10;0.03;;;0.03;;
1180;SDS011;579;52.046;8.532;2023-02-22T04:10:36;0.10;;;0.10;;
1180;SDS011;579;52.046;8.532;2023-02-22T04:13:03;0.10;;;0.10;;
1180;SDS011;579;52.046;8.532;2023-02-22T04:15:31;0.10;;;0.10;;
1180;SDS011;579;52.046;8.532;2023-02-22T04:17:58;0.08;;;0.08;;
1180;SDS011;579;52.046;8.532;2023-02-22T04:25:29;0.10;;;0.10;;
1180;SDS011;579;52.046;8.532;2023-02-22T04:27:55;0.10;;;0.10;;
1180;SDS011;579;52.046;8.532;2023-02-22T04:30:22;0.10;;;0.10;;
1180;SDS011;579;52.046;8.532;2023-02-22T04:32:48;0.10;;;0.10;;
1180;SDS011;579;52.046;8.532;2023-02-22T04:35:14;0.10;;;0.10;;
1180;SDS011;579;52.046;8.532;2023-02-22T04:37:40;0.10;;;0.10;;
1180;SDS011;579;52.046;8.532;2023-02-22T04:40:07;0.10;;;0.10;;
1180;SDS011;579;52.046;8.532;2023-02-22T04:42:36;0.10;;;0.10;;
1180;SDS011;579;52.046;8.532;2023-02-22T04:50:10;0.10;;;0.10;;
1180;SDS011;579;52.046;8.532;2023-02-22T04:52:37;0.10;;;0.10;;
1180;SDS011;579;52.046;8.532;2023-02-22T04:55:03;0.00;;;0.00;;
1180;SDS011;579;52.046;8.532;2023-02-22T04:57:30;0.10;;;0.10;;
1180;SDS011;579;52.046;8.532;2023-02-22T04:59:57;0.03;;;0.03;;
1180;SDS011;579;52.046;8.532;2023-02-22T05:02:24;0.10;;;0.10;;
1180;SDS011;579;52.046;8.532;2023-02-22T05:04:50;0.08;;;0.08;;
1180;SDS011;579;52.046;8.532;2023-02-22T05:10:07;0.10;;;0.10;;
1180;SDS011;579;52.046;8.532;2023-02-22T05:12:34;0.00;;;0.00;;
1180;SDS011;579;52.046;8.532;2023-02-22T05:15:01;0.10;;;0.10;;
1180;SDS011;579;52.046;8.532;2023-02-22T05:17:27;0.00;;;0.00;;
1180;SDS011;579;52.046;8.532;2023-02-22T05:19:53;0.00;;;0.00;;
1180;SDS011;579;52.046;8.532;2023-02-22T05:22:20;0.10;;;0.10;;
1180;SDS011;579;52.046;8.532;2023-02-22T05:24:46;0.00;;;0.00;;
1180;SDS011;579;52.046;8.532;2023-02-22T05:29:52;0.10;;;0.10;;
1180;SDS011;579;52.046;8.532;2023-02-22T05:32:18;0.00;;;0.00;;
1180;SDS011;579;52.046;8.532;2023-02-22T05:34:44;0.10;;;0.10;;
1180;SDS011;579;52.046;8.532;2023-02-22T05:37:10;0.00;;;0.00;;
1180;SDS011;579;52.046;8.532;2023-02-22T05:39:36;0.05;;;0.05;;
1180;SDS011;579;52.046;8.532;2023-02-22T05:42:03;0.00;;;0.00;;
1180;SDS011;579;52.046;8.532;2023-02-22T05:44:29;0.10;;;0.10;;
1180;SDS011;579;52.046;8.532;2023-02-22T05:46:56;0.05;;;0.05;;
1180;SDS011;579;52.046;8.532;2023-02-22T05:54:28;0.10;;;0.10;;
1180;SDS011;579;52.046;8.532;2023-02-22T05:56:54;0.10;;;0.10;;
1180;SDS011;579;52.046;8.532;2023-02-22T05:59:20;0.10;;;0.10;;
1180;SDS011;579;52.046;8.532;2023-02-22T06:01:46;0.10;;;0.10;;
1180;SDS011;579;52.046;8.532;2023-02-22T06:04:12;0.10;;;0.10;;
1180;SDS011;579;52.046;8.532;2023-02-22T06:06:38;0.00;;;0.00;;
1180;SDS011;579;52.046;8.532;2023-02-22T06:09:04;0.10;;;0.10;;
1180;SDS011;579;52.046;8.532;2023-02-22T06:11:31;0.10;;;0.10;;
1180;SDS011;579;52.046;8.532;2023-02-22T06:19:03;0.05;;;0.05;;
1180;SDS011;579;52.046;8.532;2023-02-22T06:21:30;0.10;;;0.10;;
1180;SDS011;579;52.046;8.532;2023-02-22T06:23:56;0.10;;;0.10;;
1180;SDS011;579;52.046;8.532;2023-02-22T06:26:22;0.00;;;0.00;;
1180;SDS011;579;52.046;8.532;2023-02-22T06:28:48;0.00;;;0.00;;
1180;SDS011;579;52.046;8.532;2023-02-22T06:31:14;0.08;;;0.08;;
1180;SDS011;579;52.046;8.532;2023-02-22T06:33:40;0.10;;;0.10;;
1180;SDS011;579;52.046;8.532;2023-02-22T06:36:08;0.00;;;0.00;;
1180;SDS011;579;52.046;8.532;2023-02-22T06:43:37;0.10;;;0.10;;
1180;SDS011;579;52.046;8.532;2023-02-22T06:46:03;0.10;;;0.10;;
1180;SDS011;579;52.046;8.532;2023-02-22T06:48:35;0.10;;;0.10;;
1180;SDS011;579;52.046;8.532;2023-02-22T06:51:03;0.10;;;0.10;;
1180;SDS011;579;52.046;8.532;2023-02-22T06:53:32;0.10;;;0.10;;
1180;SDS011;579;52.046;8.532;2023-02-22T06:55:58;0.10;;;0.10;;
1180;SDS011;579;52.046;8.532;2023-02-22T06:58:26;0.10;;;0.10;;
1180;SDS011;579;52.046;8.532;2023-02-22T07:00:53;0.05;;;0.05;;
1180;SDS011;579;52.046;8.532;2023-02-22T07:08:20;0.10;;;0.10;;
1180;SDS011;579;52.046;8.532;2023-02-22T07:10:46;0.10;;;0.10;;
1180;SDS011;579;52.046;8.532;2023-02-22T07:13:14;0.10;;;0.10;;
1180;SDS011;579;52.046;8.532;2023-02-22T07:15:40;0.10;;;0.10;;
1180;SDS011;579;52.046;8.532;2023-02-22T07:18:06;0.03;;;0.03;;
1180;SDS011;579;52.046;8.532;2023-02-22T07:20:33;0.00;;;0.00;;
1180;SDS011;579;52.046;8.532;2023-02-22T07:22:59;0.00;;;0.00;;
1180;SDS011;579;52.046;8.532;2023-02-22T07:25:26;0.10;;;0.10;;
1180;SDS011;579;52.046;8.532;2023-02-22T07:32:58;0.10;;;0.10;;
1180;SDS011;579;52.046;8.532;2023-02-22T07:35:27;0.00;;;0.00;;
1180;SDS011;579;52.046;8.532;2023-02-22T07:37:55;0.00;;;0.00;;
1180;SDS011;579;52.046;8.532;2023-02-22T07:40:22;0.03;;;0.03;;
1180;SDS011;579;52.046;8.532;2023-02-22T07:42:50;0.08;;;0.08;;
1180;SDS011;579;52.046;8.532;2023-02-22T07:45:21;0.10;;;0.10;;
1180;SDS011;579;52.046;8.532;2023-02-22T07:47:49;0.10;;;0.10;;
1180;SDS011;579;52.046;8.532;2023-02-22T07:50:16;0.00;;;0.00;;
1180;SDS011;579;52.046;8.532;2023-02-22T07:57:52;0.00;;;0.00;;
1180;SDS011;579;52.046;8.532;2023-02-22T08:00:22;0.00;;;0.00;;
1180;SDS011;579;52.046;8.532;2023-02-22T08:02:51;0.03;;;0.03;;
1180;SDS011;579;52.046;8.532;2023-02-22T08:05:17;0.10;;;0.10;;
1180;SDS011;579;52.046;8.532;2023-02-22T08:07:45;0.00;;;0.00;;
1180;SDS011;579;52.046;8.532;2023-02-22T08:10:12;0.00;;;0.00;;
1180;SDS011;579;52.046;8.532;2023-02-22T08:12:41;0.00;;;0.00;;
1180;SDS011;579;52.046;8.532;2023-02-22T08:17:48;0.00;;;0.00;;
1180;SDS011;579;52.046;8.532;2023-02-22T08:20:14;0.00;;;0.00;;
1180;SDS011;579;52.046;8.532;2023-02-22T08:22:41;0.03;;;0.03;;
1180;SDS011;579;52.046;8.532;2023-02-22T08:25:08;0.00;;;0.00;;
1180;SDS011;579;52.046;8.532;2023-02-22T08:27:34;0.10;;;0.10;;
1180;SDS011;579;52.046;8.532;2023-02-22T08:30:00;0.00;;;0.00;;
1180;SDS011;579;52.046;8.532;2023-02-22T08:32:26;0.10;;;0.10;;
1180;SDS011;579;52.046;8.532;2023-02-22T08:34:53;0.00;;;0.00;;
1180;SDS011;579;52.046;8.532;2023-02-22T08:42:20;0.10;;;0.10;;
1180;SDS011;579;52.046;8.532;2023-02-22T08:44:46;0.00;;;0.00;;
1180;SDS011;579;52.046;8.532;2023-02-22T08:47:12;0.00;;;0.00;;
1180;SDS011;579;52.046;8.532;2023-02-22T08:49:39;0.00;;;0.00;;
1180;SDS011;579;52.046;8.532;2023-02-22T08:52:06;0.10;;;0.10;;
1180;SDS011;579;52.046;8.532;2023-02-22T08:54:32;0.10;;;0.10;;
1180;SDS011;579;52.046;8.532;2023-02-22T08:56:58;0.10;;;0.10;;
1180;SDS011;579;52.046;8.532;2023-02-22T08:59:25;0.10;;;0.10;;
1180;SDS011;579;52.046;8.532;2023-02-22T09:06:21;0.10;;;0.10;;
1180;SDS011;579;52.046;8.532;2023-02-22T09:08:47;0.10;;;0.10;;
1180;SDS011;579;52.046;8.532;2023-02-22T09:11:13;0.10;;;0.10;;
1180;SDS011;579;52.046;8.532;2023-02-22T09:13:40;0.10;;;0.10;;
1180;SDS011;579;52.046;8.532;2023-02-22T09:16:06;0.20;;;0.20;;
1180;SDS011;579;52.046;8.532;2023-02-22T09:18:32;0.20;;;0.20;;
1180;SDS011;579;52.046;8.532;2023-02-22T09:20:58;0.20;;;0.20;;
1180;SDS011;579;52.046;8.532;2023-02-22T09:23:25;0.10;;;0.10;;
1180;SDS011;579;52.046;8.532;2023-02-22T09:30:56;0.20;;;0.20;;
1180;SDS011;579;52.046;8.532;2023-02-22T09:33:23;0.38;;;0.38;;
1180;SDS011;579;52.046;8.532;2023-02-22T09:35:49;0.30;;;0.30;;
1180;SDS011;579;52.046;8.532;2023-02-22T09:38:16;0.20;;;0.20;;
1180;SDS011;579;52.046;8.532;2023-02-22T09:40:48;0.17;;;0.17;;
1180;SDS011;579;52.046;8.532;2023-02-22T09:43:20;0.22;;;0.22;;
1180;SDS011;579;52.046;8.532;2023-02-22T09:46:03;0.10;;;0.10;;
1180;SDS011;579;52.046;8.532;2023-02-22T09:48:39;0.20;;;0.20;;
1180;SDS011;579;52.046;8.532;2023-02-22T09:54:21;0.20;;;0.20;;
1180;SDS011;579;52.046;8.532;2023-02-22T09:56:54;0.10;;;0.10;;
1180;SDS011;579;52.046;8.532;2023-02-22T09:59:23;0.20;;;0.20;;
1180;SDS011;579;52.046;8.532;2023-02-22T10:01:54;0.30;;;0.30;;
1180;SDS011;579;52.046;8.532;2023-02-22T10:04:29;0.20;;;0.20;;
1180;SDS011;579;52.046;8.532;2023-02-22T10:07:09;0.10;;;0.10;;
1180;SDS011;579;52.046;8.532;2023-02-22T10:09:43;0.10;;;0.10;;
1180;SDS011;579;52.046;8.532;2023-02-22T10:17:19;0.10;;;0.10;;
1180;SDS011;579;52.046;8.532;2023-02-22T10:19:58;0.15;;;0.15;;
1180;SDS011;579;52.046;8.532;2023-02-22T10:22:48;0.10;;;0.10;;
1180;SDS011;579;52.046;8.532;2023-02-22T10:25:27;0.10;;;0.10;;
1180;SDS011;579;52.046;8.532;2023-02-22T10:28:00;0.20;;;0.20;;
1180;SDS011;579;52.046;8.532;2023-02-22T10:30:34;0.20;;;0.20;;
1180;SDS011;579;52.046;8.532;2023-02-22T10:33:08;0.15;;;0.15;;
1180;SDS011;579;52.046;8.532;2023-02-22T10:43:00;0.10;;;0.10;;
1180;SDS011;579;52.046;8.532;2023-02-22T10:45:29;0.20;;;0.20;;
1180;SDS011;579;52.046;8.532;2023-02-22T10:47:57;0.10;;;0.10;;
1180;SDS011;579;52.046;8.532;2023-02-22T10:50:32;0.20;;;0.20;;
1180;SDS011;579;52.046;8.532;2023-02-22T10:53:03;0.20;;;0.20;;
1180;SDS011;579;52.046;8.532;2023-02-22T10:55:30;0.20;;;0.20;;
1180;SDS011;579;52.046;8.532;2023-02-22T10:57:58;0.10;;;0.10;;
1180;SDS011;579;52.046;8.532;2023-02-22T11:00:29;0.10;;;0.10;;
1180;SDS011;579;52.046;8.532;2023-02-22T11:03:21;0.10;;;0.10;;
1180;SDS011;579;52.046;8.532;2023-02-22T11:05:49;0.10;;;0.10;;
1180;SDS011;579;52.046;8.532;2023-02-22T11:08:24;0.10;;;0.10;;
1180;SDS011;579;52.046;8.532;2023-02-22T11:10:54;0.10;;;0.10;;
1180;SDS011;579;52.046;8.532;2023-02-22T11:13:25;0.10;;;0.10;;
1180;SDS011;579;52.046;8.532;2023-02-22T11:15:54;0.20;;;0.20;;
1180;SDS011;579;52.046;8.532;2023-02-22T11:18:26;0.10;;;0.10;;
1180;SDS011;579;52.046;8.532;2023-02-22T11:23:43;0.15;;;0.15;;
1180;SDS011;579;52.046;8.532;2023-02-22T11:26:09;0.10;;;0.10;;
1180;SDS011;579;52.046;8.532;2023-02-22T11:28:39;0.13;;;0.13;;
1180;SDS011;579;52.046;8.532;2023-02-22T11:31:13;0.10;;;0.10;;
1180;SDS011;579;52.046;8.532;2023-02-22T11:33:48;0.10;;;0.10;;
1180;SDS011;579;52.046;8.532;2023-02-22T11:36:29;0.10;;;0.10;;
1180;SDS011;579;52.046;8.532;2023-02-22T11:39:02;0.13;;;0.13;;
1180;SDS011;579;52.046;8.532;2023-02-22T11:41:30;0.10;;;0.10;;
1180;SDS011;579;52.046;8.532;2023-02-22T11:44:29;0.30;;;0.30;;
1180;SDS011;579;52.046;8.532;2023-02-22T11:46:57;0.50;;;0.50;;
1180;SDS011;579;52.046;8.532;2023-02-22T11:49:31;0.30;;;0.30;;
1180;SDS011;579;52.046;8.532;2023-02-22T11:52:04;0.20;;;0.20;;
1180;SDS011;579;52.046;8.532;2023-02-22T11:54:46;0.20;;;0.20;;
1180;SDS011;579;52.046;8.532;2023-02-22T11:57:32;0.20;;;0.20;;
1180;SDS011;579;52.046;8.532;2023-02-22T12:00:17;0.20;;;0.20;;
1180;SDS011;579;52.046;8.532;2023-02-22T12:03:36;0.17;;;0.17;;
1180;SDS011;579;52.046;8.532;2023-02-22T12:06:19;0.20;;;0.20;;
1180;SDS011;579;52.046;8.532;2023-02-22T12:08:59;0.20;;;0.20;;
1180;SDS011;579;52.046;8.532;2023-02-22T12:11:36;0.22;;;0.22;;
1180;SDS011;579;52.046;8.532;2023-02-22T12:14:16;0.20;;;0.20;;
1180;SDS011;579;52.046;8.532;2023-02-22T12:17:01;0.10;;;0.10;;
1180;SDS011;579;52.046;8.532;2023-02-22T12:19:45;0.20;;;0.20;;
1180;SDS011;579;52.046;8.532;2023-02-22T12:27:21;0.30;;;0.30;;
1180;SDS011;579;52.046;8.532;2023-02-22T12:29:53;0.30;;;0.30;;
1180;SDS011;579;52.046;8.532;2023-02-22T12:32:27;0.20;;;0.20;;
1180;SDS011;579;52.046;8.532;2023-02-22T12:34:58;0.10;;;0.10;;
1180;SDS011;579;52.046;8.532;2023-02-22T12:37:30;0.17;;;0.17;;
1180;SDS011;579;52.046;8.532;2023-02-22T12:40:03;0.20;;;0.20;;
1180;SDS011;579;52.046;8.532;2023-02-22T12:42:41;0.20;;;0.20;;
1180;SDS011;579;52.046;8.532;2023-02-22T12:50:21;0.20;;;0.20;;
1180;SDS011;579;52.046;8.532;2023-02-22T12:52:52;0.10;;;0.10;;
1180;SDS011;579;52.046;8.532;2023-02-22T12:55:22;0.10;;;0.10;;
1180;SDS011;579;52.046;8.532;2023-02-22T12:57:53;0.20;;;0.20;;
1180;SDS011;579;52.046;8.532;2023-02-22T13:00:27;0.10;;;0.10;;
1180;SDS011;579;52.046;8.532;2023-02-22T13:03:18;0.40;;;0.40;;
1180;SDS011;579;52.046;8.532;2023-02-22T13:05:56;0.20;;;0.20;;
1180;SDS011;579;52.046;8.532;2023-02-22T13:13:52;0.30;;;0.30;;
1180;SDS011;579;52.046;8.532;2023-02-22T13:16:35;0.20;;;0.20;;
1180;SDS011;579;52.046;8.532;2023-02-22T13:19:13;0.30;;;0.30;;
1180;SDS011;579;52.046;8.532;2023-02-22T13:22:02;0.30;;;0.30;;
1180;SDS011;579;52.046;8.532;2023-02-22T13:24:35;0.20;;;0.20;;
1180;SDS011;579;52.046;8.532;2023-02-22T13:27:18;0.20;;;0.20;;
1180;SDS011;579;52.046;8.532;2023-02-22T13:29:51;0.20;;;0.20;;
1180;SDS011;579;52.046;8.532;2023-02-22T13:37:40;0.20;;;0.20;;
1180;SDS011;579;52.046;8.532;2023-02-22T13:40:31;0.20;;;0.20;;
1180;SDS011;579;52.046;8.532;2023-02-22T13:43:19;0.20;;;0.20;;
1180;SDS011;579;52.046;8.532;2023-02-22T13:46:05;0.20;;;0.20;;
1180;SDS011;579;52.046;8.532;2023-02-22T13:49:19;0.10;;;0.10;;
1180;SDS011;579;52.046;8.532;2023-02-22T13:52:05;0.20;;;0.20;;
1180;SDS011;579;52.046;8.532;2023-02-22T13:54:35;0.20;;;0.20;;
1180;SDS011;579;52.046;8.532;2023-02-22T14:02:32;0.20;;;0.20;;
1180;SDS011;579;52.046;8.532;2023-02-22T14:05:35;0.20;;;0.20;;
1180;SDS011;579;52.046;8.532;2023-02-22T14:14:18;0.20;;;0.20;;
1180;SDS011;579;52.046;8.532;2023-02-22T14:20:03;0.35;;;0.35;;
1180;SDS011;579;52.046;8.532;2023-02-22T14:22:45;0.20;;;0.20;;
1180;SDS011;579;52.046;8.532;2023-02-22T14:25:33;0.30;;;0.30;;
1180;SDS011;579;52.046;8.532;2023-02-22T14:28:03;0.30;;;0.30;;
1180;SDS011;579;52.046;8.532;2023-02-22T14:30:35;0.20;;;0.20;;
1180;SDS011;579;52.046;8.532;2023-02-22T14:42:50;0.10;;;0.10;;
1180;SDS011;579;52.046;8.532;2023-02-22T14:45:26;0.10;;;0.10;;
1180;SDS011;579;52.046;8.532;2023-02-22T14:47:57;0.10;;;0.10;;
1180;SDS011;579;52.046;8.532;2023-02-22T14:50:39;0.10;;;0.10;;
1180;SDS011;579;52.046;8.532;2023-02-22T14:53:13;0.10;;;0.10;;
1180;SDS011;579;52.046;8.532;2023-02-22T15:00:21;0.00;;;0.00;;
1180;SDS011;579;52.046;8.532;2023-02-22T15:02:56;0.10;;;0.10;;
1180;SDS011;579;52.046;8.532;2023-02-22T15:05:24;0.10;;;0.10;;
1180;SDS011;579;52.046;8.532;2023-02-22T15:08:03;0.10;;;0.10;;
1180;SDS011;579;52.046;8.532;2023-02-22T15:10:37;0.10;;;0.10;;
1180;SDS011;579;52.046;8.532;2023-02-22T15:13:12;0.20;;;0.20;;
1180;SDS011;579;52.046;8.532;2023-02-22T15:15:44;0.20;;;0.20;;
1180;SDS011;579;52.046;8.532;2023-02-22T15:23:26;0.10;;;0.10;;
1180;SDS011;579;52.046;8.532;2023-02-22T15:26:03;0.10;;;0.10;;
1180;SDS011;579;52.046;8.532;2023-02-22T15:28:29;0.20;;;0.20;;
1180;SDS011;579;52.046;8.532;2023-02-22T15:31:15;0.10;;;0.10;;
1180;SDS011;579;52.046;8.532;2023-02-22T15:33:47;0.10;;;0.10;;
1180;SDS011;579;52.046;8.532;2023-02-22T15:36:17;0.10;;;0.10;;
1180;SDS011;579;52.046;8.532;2023-02-22T15:38:47;0.15;;;0.15;;
1180;SDS011;579;52.046;8.532;2023-02-22T15:41:20;0.10;;;0.10;;
1180;SDS011;579;52.046;8.532;2023-02-22T15:44:02;0.10;;;0.10;;
1180;SDS011;579;52.046;8.532;2023-02-22T15:46:31;0.10;;;0.10;;
1180;SDS011;579;52.046;8.532;2023-02-22T15:49:17;0.10;;;0.10;;
1180;SDS011;579;52.046;8.532;2023-02-22T15:51:51;0.10;;;0.10;;
1180;SDS011;579;52.046;8.532;2023-02-22T15:54:28;0.10;;;0.10;;
1180;SDS011;579;52.046;8.532;2023-02-22T15:57:04;0.00;;;0.00;;
1180;SDS011;579;52.046;8.532;2023-02-22T15:59:31;0.10;;;0.10;;
1180;SDS011;579;52.046;8.532;2023-02-22T16:09:22;0.10;;;0.10;;
1180;SDS011;579;52.046;8.532;2023-02-22T16:11:50;0.00;;;0.00;;
1180;SDS011;579;52.046;8.532;2023-02-22T16:14:38;0.10;;;0.10;;
1180;SDS011;579;52.046;8.532;2023-02-22T16:17:10;0.10;;;0.10;;
1180;SDS011;579;52.046;8.532;2023-02-22T16:19:53;0.00;;;0.00;;
1180;SDS011;579;52.046;8.532;2023-02-22T16:22:27;0.00;;;0.00;;
1180;SDS011;579;52.046;8.532;2023-02-22T16:25:12;0.00;;;0.00;;
1180;SDS011;579;52.046;8.532;2023-02-22T16:32:55;0.10;;;0.10;;
1180;SDS011;579;52.046;8.532;2023-02-22T16:35:23;0.10;;;0.10;;
1180;SDS011;579;52.046;8.532;2023-02-22T16:37:56;0.10;;;0.10;;
1180;SDS011;579;52.046;8.532;2023-02-22T16:40:26;0.00;;;0.00;;
1180;SDS011;579;52.046;8.532;2023-02-22T16:42:56;0.05;;;0.05;;
1180;SDS011;579;52.046;8.532;2023-02-22T16:45:25;0.00;;;0.00;;
1180;SDS011;579;52.046;8.532;2023-02-22T16:47:52;0.00;;;0.00;;
1180;SDS011;579;52.046;8.532;2023-02-22T16:50:19;0.10;;;0.10;;
1180;SDS011;579;52.046;8.532;2023-02-22T16:53:00;0.10;;;0.10;;
1180;SDS011;579;52.046;8.532;2023-02-22T16:55:26;0.00;;;0.00;;
1180;SDS011;579;52.046;8.532;2023-02-22T16:57:54;0.00;;;0.00;;
1180;SDS011;579;52.046;8.532;2023-02-22T17:00:25;0.20;;;0.20;;
1180;SDS011;579;52.046;8.532;2023-02-22T17:02:55;0.20;;;0.20;;
1180;SDS011;579;52.046;8.532;2023-02-22T17:05:22;0.10;;;0.10;;
1180;SDS011;579;52.046;8.532;2023-02-22T17:07:48;0.10;;;0.10;;
1180;SDS011;579;52.046;8.532;2023-02-22T17:10:16;0.10;;;0.10;;
1180;SDS011;579;52.046;8.532;2023-02-22T17:17:49;0.10;;;0.10;;
1180;SDS011;579;52.046;8.532;2023-02-22T17:20:16;0.10;;;0.10;;
1180;SDS011;579;52.046;8.532;2023-02-22T17:22:54;0.10;;;0.10;;
1180;SDS011;579;52.046;8.532;2023-02-22T17:25:23;0.00;;;0.00;;
1180;SDS011;579;52.046;8.532;2023-02-22T17:27:53;0.00;;;0.00;;
1180;SDS011;579;52.046;8.532;2023-02-22T17:30:19;0.10;;;0.10;;
1180;SDS011;579;52.046;8.532;2023-02-22T17:32:46;0.00;;;0.00;;
1180;SDS011;579;52.046;8.532;2023-02-22T17:35:15;0.00;;;0.00;;
1180;SDS011;579;52.046;8.532;2023-02-22T17:42:49;0.00;;;0.00;;
1180;SDS011;579;52.046;8.532;2023-02-22T17:45:19;0.00;;;0.00;;
1180;SDS011;579;52.046;8.532;2023-02-22T17:47:47;0.00;;;0.00;;
1180;SDS011;579;52.046;8.532;2023-02-22T17:50:15;0.00;;;0.00;;
1180;SDS011;579;52.046;8.532;2023-02-22T17:52:42;0.00;;;0.00;;
1180;SDS011;579;52.046;8.532;2023-02-22T17:55:11;0.00;;;0.00;;
1180;SDS011;579;52.046;8.532;2023-02-22T17:57:38;0.10;;;0.10;;
1180;SDS011;579;52.046;8.532;2023-02-22T18:02:48;0.00;;;0.00;;
1180;SDS011;579;52.046;8.532;2023-02-22T18:05:15;0.00;;;0.00;;
1180;SDS011;579;52.046;8.532;2023-02-22T18:07:43;0.00;;;0.00;;
1180;SDS011;579;52.046;8.532;2023-02-22T18:10:10;0.10;;;0.10;;
1180;SDS011;579;52.046;8.532;2023-02-22T18:12:36;0.00;;;0.00;;
1180;SDS011;579;52.046;8.532;2023-02-22T18:15:03;0.00;;;0.00;;
1180;SDS011;579;52.046;8.532;2023-02-22T18:17:30;0.08;;;0.08;;
1180;SDS011;579;52.046;8.532;2023-02-22T18:25:01;0.00;;;0.00;;
1180;SDS011;579;52.046;8.532;2023-02-22T18:27:27;0.00;;;0.00;;
1180;SDS011;579;52.046;8.532;2023-02-22T18:29:54;0.00;;;0.00;;
1180;SDS011;579;52.046;8.532;2023-02-22T18:32:20;0.10;;;0.10;;
1180;SDS011;579;52.046;8.532;2023-02-22T18:34:46;0.00;;;0.00;;
1180;SDS011;579;52.046;8.532;2023-02-22T18:37:13;0.00;;;0.00;;
1180;SDS011;579;52.046;8.532;2023-02-22T18:39:44;0.00;;;0.00;;
1180;SDS011;579;52.046;8.532;2023-02-22T18:42:11;0.00;;;0.00;;
1180;SDS011;579;52.046;8.532;2023-02-22T18:46:06;0.03;;;0.03;;
1180;SDS011;579;52.046;8.532;2023-02-22T18:48:34;0.10;;;0.10;;
1180;SDS011;579;52.046;8.532;2023-02-22T18:51:01;0.10;;;0.10;;
1180;SDS011;579;52.046;8.532;2023-02-22T18:53:29;0.10;;;0.10;;
1180;SDS011;579;52.046;8.532;2023-02-22T18:55:56;0.08;;;0.08;;
1180;SDS011;579;52.046;8.532;2023-02-22T18:58:28;0.10;;;0.10;;
1180;SDS011;579;52.046;8.532;2023-02-22T19:00:56;0.00;;;0.00;;
1180;SDS011;579;52.046;8.532;2023-02-22T19:07:28;0.00;;;0.00;;
1180;SDS011;579;52.046;8.532;2023-02-22T19:09:56;0.00;;;0.00;;
1180;SDS011;579;52.046;8.532;2023-02-22T19:12:23;0.00;;;0.00;;
1180;SDS011;579;52.046;8.532;2023-02-22T19:14:51;0.00;;;0.00;;
1180;SDS011;579;52.046;8.532;2023-02-22T19:17:17;0.00;;;0.00;;
1180;SDS011;579;52.046;8.532;2023-02-22T19:19:45;0.10;;;0.10;;
1180;SDS011;579;52.046;8.532;2023-02-22T19:22:12;0.00;;;0.00;;
1180;SDS011;579;52.046;8.532;2023-02-22T19:28:52;0.10;;;0.10;;
1180;SDS011;579;52.046;8.532;2023-02-22T19:31:21;0.10;;;0.10;;
1180;SDS011;579;52.046;8.532;2023-02-22T19:33:50;0.00;;;0.00;;
1180;SDS011;579;52.046;8.532;2023-02-22T19:36:17;0.00;;;0.00;;
1180;SDS011;579;52.046;8.532;2023-02-22T19:38:47;0.10;;;0.10;;
1180;SDS011;579;52.046;8.532;2023-02-22T19:41:14;0.10;;;0.10;;
1180;SDS011;579;52.046;8.532;2023-02-22T19:43:42;0.10;;;0.10;;